createdAt,value
2018-08-04T00:00:01.287Z,5.40
2018-08-04T00:02:28.307Z,5.53
2018-08-04T00:04:55.380Z,5.23
2018-08-04T00:07:22.398Z,5.13
2018-08-04T00:09:49.536Z,5.97
2018-08-04T00:12:16.597Z,5.47
2018-08-04T00:14:43.605Z,5.10
2018-08-04T00:17:10.599Z,5.27
2018-08-04T00:19:37.658Z,4.87
2018-08-04T00:22:04.683Z,5.40
2018-08-04T00:24:31.943Z,4.67
2018-08-04T00:26:59.268Z,5.17
2018-08-04T00:29:26.388Z,4.63
2018-08-04T00:31:53.385Z,4.53
2018-08-04T00:34:20.423Z,4.97
2018-08-04T00:36:47.427Z,4.53
2018-08-04T00:39:14.447Z,4.23
2018-08-04T00:41:41.367Z,4.47
2018-08-04T00:44:08.308Z,4.20
2018-08-04T00:46:35.277Z,4.30
2018-08-04T00:49:02.293Z,3.87
2018-08-04T00:51:29.280Z,4.30
2018-08-04T00:53:56.259Z,4.27
2018-08-04T00:56:23.289Z,4.30
2018-08-04T00:58:50.420Z,4.17
2018-08-04T01:01:17.565Z,3.90
2018-08-04T01:03:44.615Z,3.70
2018-08-04T01:06:11.535Z,3.70
2018-08-04T01:08:38.555Z,3.50
2018-08-04T01:11:05.854Z,3.53
2018-08-04T01:13:32.859Z,3.80
2018-08-04T01:15:59.867Z,4.10
2018-08-04T01:18:26.908Z,3.67
2018-08-04T01:20:54.409Z,3.73
2018-08-04T01:23:21.449Z,4.00
2018-08-04T01:25:48.645Z,3.90
2018-08-04T01:28:15.723Z,3.50
2018-08-04T01:30:42.738Z,3.63
2018-08-04T01:33:09.684Z,3.87
2018-08-04T01:35:36.626Z,3.90
2018-08-04T01:38:03.624Z,3.87
2018-08-04T01:40:30.620Z,3.77
2018-08-04T01:42:57.666Z,3.30
2018-08-04T01:45:24.764Z,3.60
2018-08-04T01:47:52.031Z,4.77
2018-08-04T01:50:19.067Z,3.60
2018-08-04T01:52:46.219Z,3.87
2018-08-04T01:55:13.260Z,3.97
2018-08-04T01:57:40.255Z,4.00
2018-08-04T02:00:07.530Z,3.50
2018-08-04T02:02:34.734Z,3.70
2018-08-04T02:05:01.690Z,4.03
2018-08-04T02:07:28.660Z,3.80
2018-08-04T02:09:55.595Z,4.03
2018-08-04T02:12:22.538Z,3.53
2018-08-04T02:14:49.499Z,3.60
2018-08-04T02:17:16.640Z,4.13
2018-08-04T02:19:43.604Z,3.73
2018-08-04T02:22:10.627Z,3.10
2018-08-04T02:24:37.569Z,3.63
2018-08-04T02:27:04.598Z,3.40
2018-08-04T02:29:31.544Z,3.40
2018-08-04T02:31:58.506Z,3.57
2018-08-04T02:34:25.563Z,3.33
2018-08-04T02:36:52.533Z,3.47
2018-08-04T02:39:19.660Z,3.47
2018-08-04T02:41:46.703Z,3.17
2018-08-04T02:44:13.700Z,3.60
2018-08-04T02:46:40.721Z,3.00
2018-08-04T02:49:07.735Z,3.50
2018-08-04T02:51:34.791Z,3.20
2018-08-04T02:54:01.726Z,3.50
2018-08-04T02:56:28.740Z,3.27
2018-08-04T02:58:55.736Z,3.60
2018-08-04T03:01:22.712Z,3.20
2018-08-04T03:03:49.706Z,3.17
2018-08-04T03:06:16.720Z,3.80
2018-08-04T03:08:43.690Z,3.50
2018-08-04T03:11:10.681Z,4.27
2018-08-04T03:13:37.762Z,3.60
2018-08-04T03:16:04.841Z,4.20
2018-08-04T03:18:31.868Z,3.57
2018-08-04T03:20:58.853Z,3.57
2018-08-04T03:23:25.879Z,3.83
2018-08-04T03:25:52.892Z,3.30
2018-08-04T03:28:19.891Z,3.33
2018-08-04T03:30:46.900Z,3.37
2018-08-04T03:33:13.885Z,3.40
2018-08-04T03:35:40.883Z,3.87
2018-08-04T03:38:07.936Z,3.60
2018-08-04T03:40:34.906Z,3.63
2018-08-04T03:43:01.851Z,3.00
2018-08-04T03:45:28.821Z,3.40
2018-08-04T03:47:55.808Z,3.30
2018-08-04T03:50:22.781Z,3.90
2018-08-04T03:52:49.871Z,3.70
2018-08-04T03:55:16.858Z,3.67
2018-08-04T03:57:43.841Z,4.10
2018-08-04T04:00:10.851Z,3.20
2018-08-04T04:02:37.869Z,4.17
2018-08-04T04:05:04.984Z,3.77
2018-08-04T04:07:32.014Z,3.60
2018-08-04T04:09:59.032Z,3.70
2018-08-04T04:12:26.018Z,3.50
2018-08-04T04:14:52.948Z,3.23
2018-08-04T04:17:19.897Z,3.87
2018-08-04T04:19:46.860Z,3.23
2018-08-04T04:22:13.859Z,3.40
2018-08-04T04:24:40.848Z,3.73
2018-08-04T04:27:07.771Z,3.30
2018-08-04T04:29:34.772Z,3.57
2018-08-04T04:32:01.770Z,3.90
2018-08-04T04:34:28.717Z,3.60
2018-08-04T04:36:55.715Z,4.40
2018-08-04T04:39:22.700Z,4.50
2018-08-04T04:41:49.700Z,4.60
2018-08-04T04:44:16.706Z,4.43
2018-08-04T04:46:43.807Z,4.20
2018-08-04T04:49:11.950Z,4.20
2018-08-04T04:51:39.400Z,4.43
2018-08-04T04:54:06.416Z,4.10
2018-08-04T04:56:33.721Z,3.80
2018-08-04T04:59:00.687Z,4.67
2018-08-04T05:01:27.881Z,4.80
2018-08-04T05:03:55.048Z,4.20
2018-08-04T05:06:22.096Z,3.90
2018-08-04T05:08:49.241Z,4.10
2018-08-04T05:11:16.180Z,4.40
2018-08-04T05:13:43.119Z,4.00
2018-08-04T05:16:10.094Z,4.23
2018-08-04T05:18:37.220Z,4.20
2018-08-04T05:21:04.143Z,3.90
2018-08-04T05:23:31.105Z,3.97
2018-08-04T05:25:59.567Z,4.10
2018-08-04T05:28:26.508Z,4.40
2018-08-04T05:30:53.517Z,4.50
2018-08-04T05:33:20.658Z,4.00
2018-08-04T05:35:47.663Z,4.77
2018-08-04T05:38:14.626Z,4.33
2018-08-04T05:40:41.645Z,4.50
2018-08-04T05:43:08.727Z,5.00
2018-08-04T05:45:35.734Z,4.50
2018-08-04T05:48:02.792Z,4.33
2018-08-04T05:50:29.740Z,4.33
2018-08-04T05:52:56.753Z,4.70
2018-08-04T05:55:23.684Z,4.67
2018-08-04T05:57:50.685Z,4.73
2018-08-04T06:00:17.675Z,4.60
2018-08-04T06:02:44.657Z,5.00
2018-08-04T06:05:11.701Z,4.70
2018-08-04T06:07:38.650Z,4.90
2018-08-04T06:10:05.660Z,4.23
2018-08-04T06:12:32.740Z,5.10
2018-08-04T06:14:59.804Z,4.70
2018-08-04T06:17:26.782Z,4.67
2018-08-04T06:19:53.782Z,4.50
2018-08-04T06:22:20.784Z,4.90
2018-08-04T06:24:47.776Z,4.70
2018-08-04T06:27:14.723Z,4.60
2018-08-04T06:29:41.845Z,5.10
2018-08-04T06:32:09.396Z,4.60
2018-08-04T06:34:36.400Z,4.77
2018-08-04T06:37:03.460Z,4.67
2018-08-04T06:39:30.574Z,4.60
2018-08-04T06:41:57.590Z,4.20
2018-08-04T06:44:27.971Z,4.73
2018-08-04T06:46:55.050Z,4.60
2018-08-04T06:49:22.053Z,4.70
2018-08-04T06:51:49.136Z,4.87
2018-08-04T06:54:16.158Z,4.20
2018-08-04T06:56:43.200Z,4.80
2018-08-04T06:59:10.224Z,5.27
2018-08-04T07:01:37.280Z,4.93
2018-08-04T07:04:04.352Z,5.50
2018-08-04T07:06:31.541Z,5.50
2018-08-04T07:08:58.588Z,5.70
2018-08-04T07:11:25.583Z,5.43
2018-08-04T07:13:52.800Z,5.13
2018-08-04T07:16:19.839Z,6.10
2018-08-04T07:18:47.105Z,5.00
2018-08-04T07:21:14.081Z,5.53
2018-08-04T07:23:41.075Z,5.17
2018-08-04T07:26:08.026Z,6.80
2018-08-04T07:28:35.006Z,5.53
2018-08-04T07:31:02.035Z,5.60
2018-08-04T07:33:29.159Z,5.17
2018-08-04T07:35:56.127Z,5.70
2018-08-04T07:38:23.101Z,5.70
2018-08-04T07:40:50.125Z,6.00
2018-08-04T07:43:17.097Z,6.07
2018-08-04T07:45:44.091Z,6.53
2018-08-04T07:48:11.128Z,5.80
2018-08-04T07:50:38.093Z,7.13
2018-08-04T07:53:05.366Z,6.70
2018-08-04T07:55:32.363Z,7.67
2018-08-04T07:57:59.458Z,6.80
2018-08-04T08:00:26.443Z,6.50
2018-08-04T08:02:53.457Z,6.87
2018-08-04T08:05:20.391Z,7.30
2018-08-04T08:07:47.330Z,7.87
2018-08-04T08:10:14.321Z,8.70
2018-08-04T08:12:41.295Z,7.57
2018-08-04T08:15:08.656Z,7.27
2018-08-04T08:17:35.829Z,9.37
2018-08-04T08:20:03.386Z,9.53
2018-08-04T08:22:36.446Z,8.20
2018-08-04T08:25:03.627Z,8.87
2018-08-04T08:27:37.639Z,7.80
2018-08-04T08:30:06.169Z,8.80
2018-08-04T08:32:33.172Z,7.60
2018-08-04T08:35:00.245Z,9.53
2018-08-04T08:37:27.264Z,9.80
2018-08-04T08:39:54.221Z,9.07
2018-08-04T08:42:21.133Z,10.70
2018-08-04T08:44:48.164Z,11.23
2018-08-04T08:47:15.153Z,10.47
2018-08-04T08:49:42.140Z,10.10
2018-08-04T08:52:09.138Z,11.47
2018-08-04T08:54:36.207Z,10.87
2018-08-04T08:57:03.348Z,10.83
2018-08-04T08:59:30.418Z,9.43
2018-08-04T09:01:57.436Z,7.90
2018-08-04T09:04:24.382Z,8.70
2018-08-04T09:06:51.318Z,9.20
2018-08-04T09:09:18.268Z,8.60
2018-08-04T09:11:45.217Z,8.93
2018-08-04T09:14:12.226Z,7.90
2018-08-04T09:16:39.200Z,8.03
2018-08-04T09:19:06.153Z,6.20
2018-08-04T09:21:33.236Z,6.00
2018-08-04T09:24:00.348Z,5.30
2018-08-04T09:26:27.485Z,5.20
2018-08-04T09:28:54.514Z,4.90
2018-08-04T09:31:21.479Z,5.20
2018-08-04T09:33:48.421Z,5.40
2018-08-04T09:36:15.377Z,5.30
2018-08-04T09:38:42.295Z,6.40
2018-08-04T09:41:09.255Z,5.87
2018-08-04T09:43:36.200Z,5.93
2018-08-04T09:46:03.251Z,6.30
2018-08-04T09:48:30.204Z,6.00
2018-08-04T09:50:57.240Z,6.30
2018-08-04T09:53:24.183Z,6.70
2018-08-04T09:55:51.177Z,5.80
2018-08-04T09:58:18.182Z,6.00
2018-08-04T10:01:53.842Z,5.80
2018-08-04T10:04:20.876Z,5.10
2018-08-04T10:06:47.925Z,5.40
2018-08-04T10:09:14.892Z,5.13
2018-08-04T10:11:41.918Z,4.80
2018-08-04T10:14:08.930Z,5.20
2018-08-04T10:16:35.909Z,5.27
2018-08-04T10:19:02.832Z,5.10
2018-08-04T10:21:29.903Z,5.20
2018-08-04T10:23:56.846Z,5.07
2018-08-04T10:26:23.800Z,4.60
2018-08-04T10:28:50.738Z,5.00
2018-08-04T10:31:17.694Z,5.00
2018-08-04T10:33:44.677Z,5.70
2018-08-04T10:36:11.672Z,4.60
2018-08-04T10:38:38.722Z,5.20
2018-08-04T10:41:05.667Z,5.13
2018-08-04T10:43:32.712Z,5.63
2018-08-04T10:45:59.880Z,5.43
2018-08-04T10:48:26.857Z,5.17
2018-08-04T10:50:53.876Z,4.70
2018-08-04T10:53:20.952Z,5.40
2018-08-04T10:55:47.940Z,5.33
2018-08-04T10:58:14.898Z,5.60
2018-08-04T11:00:41.955Z,6.00
2018-08-04T11:03:08.891Z,4.67
2018-08-04T11:05:35.868Z,4.80
2018-08-04T11:08:02.848Z,5.57
2018-08-04T11:10:29.957Z,4.90
2018-08-04T11:12:56.908Z,5.00
2018-08-04T11:15:23.920Z,5.17
2018-08-04T11:17:50.945Z,4.60
2018-08-04T11:20:17.903Z,4.50
2018-08-04T11:22:44.833Z,4.20
2018-08-04T11:25:11.790Z,4.70
2018-08-04T11:27:38.736Z,4.33
2018-08-04T11:30:06.856Z,4.37
2018-08-04T11:32:33.824Z,4.70
2018-08-04T11:35:00.823Z,5.13
2018-08-04T11:37:27.900Z,5.40
2018-08-04T11:39:55.198Z,4.17
2018-08-04T11:42:22.227Z,4.00
2018-08-04T11:44:49.296Z,4.00
2018-08-04T11:47:16.292Z,3.73
2018-08-04T11:49:43.274Z,4.30
2018-08-04T11:52:10.248Z,4.33
2018-08-04T11:54:37.775Z,3.97
2018-08-04T11:57:04.740Z,3.37
2018-08-04T11:59:31.844Z,3.90
2018-08-04T12:01:59.007Z,3.60
2018-08-04T12:04:26.199Z,3.27
2018-08-04T12:06:53.210Z,3.20
2018-08-04T12:09:20.313Z,3.47
2018-08-04T12:11:47.266Z,3.30
2018-08-04T12:14:14.269Z,3.10
2018-08-04T12:16:41.223Z,3.07
2018-08-04T12:19:08.191Z,2.90
2018-08-04T12:21:35.135Z,2.90
2018-08-04T12:24:02.148Z,2.90
2018-08-04T12:26:29.267Z,2.97
2018-08-04T12:28:56.230Z,3.00
2018-08-04T12:31:23.469Z,2.70
2018-08-04T12:33:50.430Z,2.77
2018-08-04T12:36:17.651Z,2.30
2018-08-04T12:38:44.632Z,2.43
2018-08-04T12:41:11.599Z,2.30
2018-08-04T12:43:38.548Z,2.60
2018-08-04T12:46:05.470Z,2.60
2018-08-04T12:48:32.513Z,2.43
2018-08-04T12:51:00.851Z,2.83
2018-08-04T12:53:27.837Z,2.50
2018-08-04T12:55:54.797Z,3.10
2018-08-04T12:58:21.792Z,3.00
2018-08-04T13:00:48.788Z,3.00
2018-08-04T13:03:15.732Z,3.10
2018-08-04T13:05:42.683Z,3.00
2018-08-04T13:08:09.654Z,3.10
2018-08-04T13:10:36.611Z,3.13
2018-08-04T13:13:03.591Z,3.63
2018-08-04T13:15:30.646Z,3.30
2018-08-04T13:17:57.660Z,3.30
2018-08-04T13:20:24.695Z,2.90
2018-08-04T13:22:51.720Z,2.83
2018-08-04T13:25:18.736Z,3.27
2018-08-04T13:27:45.706Z,2.90
2018-08-04T13:30:12.696Z,2.80
2018-08-04T13:32:39.622Z,3.13
2018-08-04T13:35:06.657Z,3.53
2018-08-04T13:37:33.665Z,3.17
2018-08-04T13:40:00.715Z,2.50
2018-08-04T13:42:27.707Z,2.53
2018-08-04T13:44:54.700Z,3.60
2018-08-04T13:47:21.647Z,3.50
2018-08-04T13:49:48.625Z,2.83
2018-08-04T13:52:15.610Z,3.20
2018-08-04T13:54:42.599Z,3.00
2018-08-04T13:57:09.659Z,10.83
2018-08-04T13:59:36.787Z,2.60
2018-08-04T14:02:03.726Z,2.70
2018-08-04T14:04:30.900Z,2.50
2018-08-04T14:06:57.907Z,2.80
2018-08-04T14:09:24.861Z,2.80
2018-08-04T14:11:51.866Z,2.70
2018-08-04T14:14:18.852Z,2.50
2018-08-04T14:16:45.769Z,2.40
2018-08-04T14:19:12.753Z,3.07
2018-08-04T14:21:39.657Z,2.97
2018-08-04T14:24:06.617Z,2.80
2018-08-04T14:26:33.750Z,2.40
2018-08-04T14:29:00.882Z,2.73
2018-08-04T14:31:27.985Z,3.40
2018-08-04T14:33:54.996Z,2.97
2018-08-04T14:36:21.946Z,2.90
2018-08-04T14:38:48.901Z,2.60
2018-08-04T14:41:15.925Z,2.60
2018-08-04T14:43:42.895Z,2.50
2018-08-04T14:46:10.008Z,2.30
2018-08-04T14:48:36.970Z,2.80
2018-08-04T14:51:03.932Z,2.70
2018-08-04T14:53:31.124Z,2.33
2018-08-04T14:55:58.154Z,2.50
2018-08-04T14:58:25.077Z,3.47
2018-08-04T15:00:51.996Z,2.90
2018-08-04T15:03:18.951Z,2.67
2018-08-04T15:05:45.925Z,2.60
2018-08-04T15:08:12.998Z,2.67
2018-08-04T15:10:40.000Z,2.90
2018-08-04T15:13:06.952Z,3.50
2018-08-04T15:15:33.955Z,2.57
2018-08-04T15:18:01.059Z,2.60
2018-08-04T15:20:27.979Z,3.00
2018-08-04T15:22:55.028Z,3.13
2018-08-04T15:25:22.092Z,3.40
2018-08-04T15:27:49.081Z,3.10
2018-08-04T15:30:15.983Z,2.50
2018-08-04T15:32:42.907Z,2.90
2018-08-04T15:35:09.872Z,2.97
2018-08-04T15:37:36.799Z,3.00
2018-08-04T15:40:03.797Z,2.97
2018-08-04T15:42:30.921Z,3.60
2018-08-04T15:44:57.956Z,2.43
2018-08-04T15:47:24.992Z,2.67
2018-08-04T15:49:51.951Z,2.90
2018-08-04T15:52:18.956Z,2.40
2018-08-04T15:54:45.940Z,2.80
2018-08-04T15:57:12.871Z,2.87
2018-08-04T15:59:39.888Z,2.90
2018-08-04T16:02:06.943Z,3.03
2018-08-04T16:04:33.930Z,3.10
2018-08-04T16:07:00.980Z,2.97
2018-08-04T16:09:28.008Z,2.80
2018-08-04T16:11:54.966Z,3.17
2018-08-04T16:14:21.904Z,3.27
2018-08-04T16:16:49.024Z,2.97
2018-08-04T16:19:15.959Z,2.70
2018-08-04T16:21:42.919Z,2.57
2018-08-04T16:24:09.900Z,2.57
2018-08-04T16:26:36.847Z,2.90
2018-08-04T16:29:03.879Z,2.30
2018-08-04T16:31:30.879Z,2.63
2018-08-04T16:33:57.962Z,2.77
2018-08-04T16:36:24.933Z,2.83
2018-08-04T16:38:51.920Z,2.63
2018-08-04T16:41:18.917Z,2.50
2018-08-04T16:43:45.897Z,2.50
2018-08-04T16:46:12.889Z,2.70
2018-08-04T16:48:39.830Z,3.07
2018-08-04T16:51:06.928Z,2.67
2018-08-04T16:53:33.930Z,2.57
2018-08-04T16:56:01.040Z,2.77
2018-08-04T16:58:28.125Z,2.53
2018-08-04T17:00:55.072Z,2.67
2018-08-04T17:03:22.033Z,2.80
2018-08-04T17:05:48.959Z,2.53
2018-08-04T17:08:15.989Z,2.80
2018-08-04T17:10:43.006Z,2.80
2018-08-04T17:13:10.014Z,2.90
2018-08-04T17:15:36.941Z,2.83
2018-08-04T17:18:04.158Z,2.70
2018-08-04T17:20:31.121Z,2.97
2018-08-04T17:22:58.066Z,2.90
2018-08-04T17:25:25.000Z,2.60
2018-08-04T17:27:52.008Z,2.37
2018-08-04T17:30:18.914Z,2.60
2018-08-04T17:32:45.876Z,2.80
2018-08-04T17:35:12.807Z,3.00
2018-08-04T17:37:39.776Z,2.80
2018-08-04T17:40:06.770Z,3.00
2018-08-04T17:42:33.860Z,2.40
2018-08-04T17:45:00.822Z,2.73
2018-08-04T17:47:30.261Z,2.90
2018-08-04T17:49:57.359Z,3.17
2018-08-04T17:52:24.323Z,2.77
2018-08-04T17:54:51.416Z,2.90
2018-08-04T17:57:18.391Z,3.13
2018-08-04T17:59:45.327Z,3.10
2018-08-04T18:02:12.406Z,3.40
2018-08-04T18:04:39.335Z,2.77
2018-08-04T18:07:06.361Z,2.70
2018-08-04T18:09:33.329Z,3.00
2018-08-04T18:12:00.462Z,2.73
2018-08-04T18:14:27.532Z,3.27
2018-08-04T18:16:54.564Z,2.80
2018-08-04T18:19:21.572Z,3.23
2018-08-04T18:21:48.588Z,2.70
2018-08-04T18:24:15.549Z,3.20
2018-08-04T18:26:42.574Z,3.23
2018-08-04T18:29:09.609Z,3.30
2018-08-04T18:31:36.616Z,3.17
2018-08-04T18:34:03.645Z,3.23
2018-08-04T18:36:30.726Z,3.07
2018-08-04T18:38:57.748Z,3.50
2018-08-04T18:41:24.781Z,3.30
2018-08-04T18:43:51.876Z,3.80
2018-08-04T18:46:18.845Z,3.80
2018-08-04T18:48:45.876Z,3.70
2018-08-04T18:51:12.935Z,3.83
2018-08-04T18:53:40.001Z,3.80
2018-08-04T18:56:07.048Z,3.80
2018-08-04T18:58:34.109Z,10.53
2018-08-04T19:01:01.421Z,3.40
2018-08-04T19:03:28.673Z,3.63
2018-08-04T19:05:55.709Z,3.73
2018-08-04T19:08:22.692Z,3.73
2018-08-04T19:10:49.705Z,3.63
2018-08-04T19:13:17.438Z,3.50
2018-08-04T19:15:44.453Z,3.67
2018-08-04T19:18:11.485Z,3.70
2018-08-04T19:20:38.500Z,3.10
2018-08-04T19:23:05.524Z,3.73
2018-08-04T19:25:32.535Z,3.00
2018-08-04T19:27:59.593Z,3.40
2018-08-04T19:30:26.634Z,3.50
2018-08-04T19:32:53.642Z,3.70
2018-08-04T19:35:20.684Z,3.83
2018-08-04T19:37:47.666Z,3.37
2018-08-04T19:40:14.623Z,3.20
2018-08-04T19:42:41.625Z,3.20
2018-08-04T19:45:08.656Z,3.30
2018-08-04T19:47:35.686Z,4.10
2018-08-04T19:50:02.769Z,3.33
2018-08-04T19:52:29.916Z,3.40
2018-08-04T19:54:56.867Z,2.83
2018-08-04T19:57:23.875Z,3.20
2018-08-04T19:59:50.839Z,3.20
2018-08-04T20:02:17.851Z,3.37
2018-08-04T20:04:45.137Z,3.10
2018-08-04T20:07:12.129Z,3.40
2018-08-04T20:09:39.196Z,3.73
2018-08-04T20:12:06.263Z,3.57
2018-08-04T20:14:33.274Z,4.17
2018-08-04T20:17:00.346Z,3.30
2018-08-04T20:19:27.334Z,3.33
2018-08-04T20:21:54.336Z,3.23
2018-08-04T20:24:21.361Z,3.50
2018-08-04T20:26:48.347Z,3.20
2018-08-04T20:29:15.315Z,3.47
2018-08-04T20:31:42.275Z,3.00
2018-08-04T20:34:09.311Z,3.50
2018-08-04T20:36:36.352Z,3.53
2018-08-04T20:39:06.488Z,4.03
2018-08-04T20:41:33.634Z,3.53
2018-08-04T20:44:00.728Z,3.10
2018-08-04T20:46:27.777Z,3.37
2018-08-04T20:48:54.770Z,3.60
2018-08-04T20:51:21.824Z,3.20
2018-08-04T20:53:48.855Z,3.23
2018-08-04T20:56:15.853Z,3.37
2018-08-04T20:58:42.828Z,3.03
2018-08-04T21:01:21.452Z,3.20
2018-08-04T21:03:48.412Z,2.63
2018-08-04T21:06:15.370Z,2.70
2018-08-04T21:08:42.372Z,2.67
2018-08-04T21:11:09.348Z,2.53
2018-08-04T21:13:36.296Z,2.20
2018-08-04T21:16:03.396Z,2.73
2018-08-04T21:18:30.968Z,2.53
2018-08-04T21:20:58.074Z,2.00
2018-08-04T21:23:25.080Z,2.70
2018-08-04T21:25:52.089Z,2.90
2018-08-04T21:28:19.088Z,2.47
2018-08-04T21:30:46.088Z,2.53
2018-08-04T21:33:13.073Z,2.80
2018-08-04T21:35:40.214Z,2.47
2018-08-04T21:38:07.173Z,2.30
2018-08-04T21:40:34.271Z,2.20
2018-08-04T21:43:01.355Z,2.50
2018-08-04T21:45:28.513Z,2.60
2018-08-04T21:47:55.476Z,2.67
2018-08-04T21:50:22.527Z,2.40
2018-08-04T21:52:49.552Z,2.50
2018-08-04T21:55:16.548Z,2.30
2018-08-04T21:57:43.561Z,1.93
2018-08-04T22:00:12.331Z,2.20
2018-08-04T22:02:52.081Z,2.30
2018-08-04T22:05:19.006Z,1.97
2018-08-04T22:07:58.346Z,1.90
2018-08-04T22:10:25.315Z,1.87
2018-08-04T22:12:52.310Z,2.20
2018-08-04T22:15:19.450Z,2.13
2018-08-04T22:17:46.433Z,2.03
2018-08-04T22:20:14.731Z,2.17
2018-08-04T22:22:42.160Z,2.07
2018-08-04T22:25:10.975Z,2.57
2018-08-04T22:27:37.961Z,2.40
2018-08-04T22:30:06.534Z,2.37
2018-08-04T22:32:33.560Z,2.73
2018-08-04T22:35:00.576Z,2.50
2018-08-04T22:37:27.596Z,2.50
2018-08-04T22:39:54.576Z,2.27
2018-08-04T22:42:21.531Z,2.00
2018-08-04T22:45:00.981Z,2.37
2018-08-04T22:47:28.020Z,2.33
2018-08-04T22:49:55.039Z,2.30
2018-08-04T22:52:22.081Z,2.10
2018-08-04T22:54:49.056Z,1.73
2018-08-04T22:57:16.128Z,2.20
2018-08-04T22:59:43.125Z,2.10
2018-08-04T23:02:10.096Z,2.20
2018-08-04T23:04:37.072Z,2.17
2018-08-04T23:07:04.083Z,2.70
2018-08-04T23:09:31.130Z,2.27
2018-08-04T23:11:58.389Z,1.87
2018-08-04T23:14:25.382Z,2.20
2018-08-04T23:16:52.384Z,2.10
2018-08-04T23:19:19.417Z,2.30
2018-08-04T23:21:46.464Z,1.97
2018-08-04T23:24:13.558Z,1.97
2018-08-04T23:26:40.566Z,2.17
2018-08-04T23:29:07.613Z,2.00
2018-08-04T23:31:34.680Z,2.50
2018-08-04T23:34:01.769Z,2.27
2018-08-04T23:36:28.804Z,2.20
2018-08-04T23:38:55.831Z,2.57
2018-08-04T23:41:22.795Z,2.27
2018-08-04T23:43:49.818Z,2.13
2018-08-04T23:46:16.814Z,2.40
2018-08-04T23:48:43.791Z,2.40
2018-08-04T23:51:10.825Z,2.40
2018-08-04T23:53:37.855Z,2.40
2018-08-04T23:56:04.855Z,1.93
2018-08-04T23:58:31.872Z,1.90
